createdAt,value
2023-05-20T00:00:00.542Z,73.24
2023-05-20T00:03:28.226Z,73.26
2023-05-20T00:06:56.310Z,73.22
2023-05-20T00:10:24.562Z,73.19
2023-05-20T00:13:52.236Z,73.36
2023-05-20T00:17:19.985Z,73.42
2023-05-20T00:20:47.833Z,73.48
2023-05-20T00:24:20.651Z,73.59
2023-05-20T00:27:48.263Z,73.70
2023-05-20T00:31:16.667Z,73.91
2023-05-20T00:34:44.324Z,74.00
2023-05-20T00:38:13.561Z,74.17
2023-05-20T00:41:41.185Z,74.32
2023-05-20T00:45:07.634Z,74.46
2023-05-20T00:48:34.121Z,74.68
2023-05-20T00:52:03.565Z,74.69
2023-05-20T00:55:14.225Z,74.80
2023-05-20T00:58:41.924Z,74.90
2023-05-20T01:02:09.629Z,74.92
2023-05-20T01:05:30.404Z,74.92
2023-05-20T01:08:52.748Z,74.99
2023-05-20T01:12:20.388Z,74.90
2023-05-20T01:15:51.445Z,74.69
2023-05-20T01:19:19.147Z,74.57
2023-05-20T01:22:47.030Z,74.40
2023-05-20T01:26:14.666Z,74.17
2023-05-20T01:29:32.380Z,73.99
2023-05-20T01:32:53.412Z,73.94
2023-05-20T01:36:14.100Z,73.73
2023-05-20T01:39:41.837Z,73.75
2023-05-20T01:43:09.435Z,73.61
2023-05-20T01:46:37.149Z,73.43
2023-05-20T01:50:04.812Z,73.45
2023-05-20T01:53:25.632Z,73.17
2023-05-20T01:56:53.265Z,73.02
2023-05-20T02:00:20.956Z,72.92
2023-05-20T02:03:48.620Z,72.67
2023-05-20T02:07:16.345Z,72.53
2023-05-20T02:10:43.962Z,72.40
2023-05-20T02:14:11.533Z,72.27
2023-05-20T02:17:39.184Z,71.99
2023-05-20T02:21:06.817Z,71.74
2023-05-20T02:24:05.420Z,71.69
2023-05-20T02:27:24.294Z,71.49
2023-05-20T02:30:52.038Z,71.37
2023-05-20T02:34:19.480Z,71.22
2023-05-20T02:37:40.273Z,71.09
2023-05-20T02:41:05.794Z,71.06
2023-05-20T02:44:31.457Z,71.12
2023-05-20T02:47:58.152Z,71.14
2023-05-20T02:51:19.461Z,70.98
2023-05-20T02:54:40.968Z,70.93
2023-05-20T02:58:08.633Z,70.71
2023-05-20T03:01:30.059Z,70.63
2023-05-20T03:04:57.724Z,70.61
2023-05-20T03:08:25.308Z,70.50
2023-05-20T03:11:52.900Z,70.66
2023-05-20T03:15:20.516Z,70.63
2023-05-20T03:18:48.188Z,70.70
2023-05-20T03:22:16.118Z,70.72
2023-05-20T03:25:36.806Z,70.78
2023-05-20T03:28:58.022Z,70.82
2023-05-20T03:32:24.512Z,70.85
2023-05-20T03:35:52.102Z,70.83
2023-05-20T03:39:04.935Z,70.90
2023-05-20T03:42:25.304Z,70.76
2023-05-20T03:45:52.971Z,70.65
2023-05-20T03:49:14.324Z,70.62
2023-05-20T03:52:41.915Z,70.21
2023-05-20T03:56:09.562Z,69.85
2023-05-20T03:59:37.173Z,69.48
2023-05-20T04:03:04.834Z,69.16
2023-05-20T04:06:23.460Z,68.91
2023-05-20T04:09:51.141Z,68.51
2023-05-20T04:13:18.832Z,67.96
2023-05-20T04:16:46.648Z,67.29
2023-05-20T04:20:14.341Z,66.69
2023-05-20T04:23:42.046Z,66.23
2023-05-20T04:27:09.674Z,65.82
2023-05-20T04:30:37.632Z,65.57
2023-05-20T04:34:05.310Z,65.05
2023-05-20T04:37:32.892Z,63.90
2023-05-20T04:41:00.488Z,61.63
2023-05-20T04:44:28.075Z,58.32
2023-05-20T04:47:55.905Z,54.59
2023-05-20T04:51:17.443Z,52.90
2023-05-20T04:54:45.095Z,52.68
2023-05-20T04:58:12.803Z,53.00
2023-05-20T05:01:44.930Z,53.55
2023-05-20T05:05:12.591Z,53.98
2023-05-20T05:08:36.488Z,54.47
2023-05-20T05:12:04.158Z,54.68
2023-05-20T05:15:30.908Z,54.70
2023-05-20T05:18:58.546Z,54.25
2023-05-20T05:22:26.150Z,54.10
2023-05-20T05:25:53.824Z,53.70
2023-05-20T05:29:21.440Z,53.25
2023-05-20T05:32:49.614Z,52.77
2023-05-20T05:36:17.425Z,52.03
2023-05-20T05:39:48.542Z,51.12
2023-05-20T05:43:16.196Z,50.49
2023-05-20T05:46:43.966Z,50.29
2023-05-20T05:50:10.691Z,49.98
2023-05-20T05:53:38.386Z,49.77
2023-05-20T05:56:58.923Z,49.03
2023-05-20T06:00:26.589Z,48.73
2023-05-20T06:03:46.980Z,48.24
2023-05-20T06:07:14.841Z,47.85
2023-05-20T06:10:42.567Z,47.86
2023-05-20T06:14:10.212Z,47.61
2023-05-20T06:17:38.631Z,46.72
2023-05-20T06:21:06.350Z,46.28
2023-05-20T06:24:28.717Z,46.16
2023-05-20T06:27:56.376Z,45.89
2023-05-20T06:31:25.701Z,45.02
2023-05-20T06:34:52.505Z,45.04
2023-05-20T06:38:25.581Z,45.16
2023-05-20T06:41:51.941Z,45.12
2023-05-20T06:45:10.805Z,44.85
2023-05-20T06:48:28.537Z,44.21
2023-05-20T06:51:56.149Z,43.67
2023-05-20T06:55:23.894Z,43.74
2023-05-20T06:58:42.480Z,43.14
2023-05-20T07:02:01.169Z,42.63
2023-05-20T07:04:58.240Z,42.32
2023-05-20T07:08:18.860Z,42.25
2023-05-20T07:11:47.654Z,42.23
2023-05-20T07:15:03.609Z,41.70
2023-05-20T07:18:31.345Z,41.67
2023-05-20T07:21:42.400Z,40.96
2023-05-20T07:25:18.075Z,40.72
2023-05-20T07:28:35.904Z,40.17
2023-05-20T07:31:46.434Z,40.07
2023-05-20T07:34:37.096Z,40.17
2023-05-20T07:37:12.829Z,40.01
2023-05-20T07:39:40.724Z,40.26
2023-05-20T07:42:24.609Z,40.30
2023-05-20T07:45:27.576Z,39.35
2023-05-20T07:48:53.845Z,39.08
2023-05-20T07:52:21.523Z,38.89
2023-05-20T07:55:41.949Z,38.30
2023-05-20T07:58:50.533Z,37.71
2023-05-20T08:02:18.370Z,37.78
2023-05-20T08:05:46.207Z,37.86
2023-05-20T08:08:54.340Z,37.52
2023-05-20T08:11:35.635Z,37.03
2023-05-20T08:14:22.316Z,36.75
2023-05-20T08:17:14.701Z,36.54
2023-05-20T08:20:11.165Z,36.31
2023-05-20T08:22:54.856Z,35.81
2023-05-20T08:26:04.494Z,35.30
2023-05-20T08:29:13.186Z,35.16
2023-05-20T08:32:39.898Z,34.25
2023-05-20T08:36:03.982Z,33.41
2023-05-20T08:39:31.798Z,33.52
2023-05-20T08:42:13.596Z,33.66
2023-05-20T08:45:34.759Z,33.26
2023-05-20T08:48:54.721Z,33.26
2023-05-20T08:52:11.245Z,33.44
2023-05-20T08:55:14.834Z,32.40
2023-05-20T08:58:21.178Z,31.81
2023-05-20T09:01:44.982Z,31.58
2023-05-20T09:05:08.137Z,31.80
2023-05-20T09:08:22.169Z,31.76
2023-05-20T09:11:32.266Z,31.54
2023-05-20T09:14:54.213Z,31.59
2023-05-20T09:18:00.324Z,31.43
2023-05-20T09:21:11.695Z,31.13
2023-05-20T09:24:39.354Z,30.40
2023-05-20T09:27:38.246Z,30.02
2023-05-20T09:31:05.000Z,29.70
2023-05-20T09:34:33.797Z,29.74
2023-05-20T09:37:51.641Z,29.74
2023-05-20T09:45:05.639Z,29.61
2023-05-20T09:48:34.076Z,29.32
2023-05-20T09:51:41.250Z,28.84
2023-05-20T09:54:29.027Z,28.13
2023-05-20T09:57:27.651Z,28.20
2023-05-20T10:00:30.850Z,27.68
2023-05-20T10:03:57.517Z,28.15
2023-05-20T10:07:40.736Z,28.25
2023-05-20T10:11:13.085Z,28.48
2023-05-20T10:14:29.886Z,28.47
2023-05-20T10:17:50.644Z,27.82
2023-05-20T10:21:27.576Z,27.90
2023-05-20T10:24:55.425Z,28.20
2023-05-20T10:28:23.127Z,27.69
2023-05-20T10:31:36.976Z,27.75
2023-05-20T10:35:03.836Z,27.34
2023-05-20T10:38:11.511Z,27.46
2023-05-20T10:41:19.680Z,27.28
2023-05-20T10:44:47.404Z,26.96
2023-05-20T10:48:10.133Z,26.65
2023-05-20T10:51:37.638Z,26.12
2023-05-20T10:55:05.274Z,25.98
2023-05-20T10:58:32.747Z,25.67
2023-05-20T11:01:57.772Z,25.51
2023-05-20T11:05:08.774Z,24.99
2023-05-20T11:08:42.569Z,25.06
2023-05-20T11:12:10.237Z,24.95
2023-05-20T11:15:37.917Z,24.83
2023-05-20T11:19:05.625Z,24.44
2023-05-20T11:21:55.479Z,24.44
2023-05-20T11:25:03.137Z,24.30
2023-05-20T11:28:32.147Z,23.60
2023-05-20T11:31:47.110Z,23.60
2023-05-20T11:35:17.489Z,23.52
2023-05-20T11:38:45.204Z,23.63
2023-05-20T11:42:13.522Z,23.02
2023-05-20T11:45:31.217Z,22.26
2023-05-20T11:48:49.970Z,22.18
2023-05-20T11:52:07.762Z,22.36
2023-05-20T11:55:32.074Z,21.92
2023-05-20T11:59:06.047Z,21.95
2023-05-20T12:02:26.911Z,21.23
2023-05-20T12:06:53.565Z,20.94
2023-05-20T12:09:20.056Z,20.62
2023-05-20T12:12:42.520Z,20.22
2023-05-20T12:16:10.297Z,20.20
2023-05-20T12:19:29.149Z,19.97
2023-05-20T12:22:44.137Z,19.89
2023-05-20T12:26:11.796Z,19.83
2023-05-20T12:29:30.381Z,19.32
2023-05-20T12:32:31.901Z,19.00
2023-05-20T12:35:35.459Z,18.93
2023-05-20T12:39:07.062Z,18.70
2023-05-20T12:41:54.671Z,18.16
2023-05-20T12:45:00.945Z,17.89
2023-05-20T12:48:21.739Z,18.16
2023-05-20T12:51:29.683Z,18.55
2023-05-20T12:54:26.386Z,18.05
2023-05-20T12:57:45.460Z,17.51
2023-05-20T13:01:13.160Z,18.08
2023-05-20T13:04:39.563Z,17.70
2023-05-20T13:07:47.413Z,17.56
2023-05-20T13:10:45.047Z,17.34
2023-05-20T13:13:32.474Z,17.28
2023-05-20T13:17:01.423Z,17.00
2023-05-20T13:20:22.173Z,16.96
2023-05-20T13:23:37.231Z,16.66
2023-05-20T13:26:55.081Z,16.52
2023-05-20T13:30:12.802Z,16.45
2023-05-20T13:33:40.567Z,16.27
2023-05-20T13:36:48.124Z,16.35
2023-05-20T13:40:14.504Z,16.11
2023-05-20T13:43:35.161Z,16.36
2023-05-20T13:46:45.914Z,16.36
2023-05-20T13:50:03.528Z,16.26
2023-05-20T13:53:13.810Z,16.10
2023-05-20T13:56:10.488Z,16.24
2023-05-20T13:59:38.206Z,15.90
2023-05-20T14:02:54.793Z,15.89
2023-05-20T14:06:13.449Z,15.90
2023-05-20T14:09:23.669Z,15.87
2023-05-20T14:12:31.136Z,15.77
2023-05-20T14:15:38.838Z,15.59
2023-05-20T14:19:08.924Z,15.54
2023-05-20T14:22:26.647Z,15.69
2023-05-20T14:25:58.227Z,15.71
2023-05-20T14:28:47.144Z,15.91
2023-05-20T14:32:14.835Z,15.81
2023-05-20T14:35:22.030Z,15.83
2023-05-20T14:38:28.737Z,15.94
2023-05-20T14:41:28.917Z,16.05
2023-05-20T14:44:21.923Z,16.22
2023-05-20T14:47:22.347Z,16.18
2023-05-20T14:50:49.859Z,16.39
2023-05-20T14:54:17.834Z,16.31
2023-05-20T14:57:32.757Z,16.24
2023-05-20T15:00:40.549Z,16.24
2023-05-20T15:04:01.291Z,16.38
2023-05-20T15:07:11.778Z,16.47
2023-05-20T15:10:19.664Z,16.52
2023-05-20T15:13:46.333Z,16.66
2023-05-20T15:16:55.226Z,16.92
2023-05-20T15:20:03.212Z,16.74
2023-05-20T15:23:20.845Z,17.30
2023-05-20T15:26:26.470Z,18.08
2023-05-20T15:29:47.213Z,18.64
2023-05-20T15:33:07.606Z,19.56
2023-05-20T15:36:29.031Z,20.40
2023-05-20T15:39:37.010Z,21.09
2023-05-20T15:42:44.402Z,21.81
2023-05-20T15:45:52.090Z,22.48
2023-05-20T15:48:59.609Z,22.72
2023-05-20T15:52:27.248Z,23.57
2023-05-20T15:55:46.969Z,23.89
2023-05-20T15:59:15.087Z,24.21
2023-05-20T16:02:44.492Z,24.81
2023-05-20T16:06:02.117Z,25.08
2023-05-20T16:09:29.807Z,25.35
2023-05-20T16:12:55.133Z,25.70
2023-05-20T16:16:07.116Z,26.17
2023-05-20T16:19:31.542Z,26.30
2023-05-20T16:22:49.420Z,26.61
2023-05-20T16:26:17.094Z,26.80
2023-05-20T16:29:47.355Z,26.67
2023-05-20T16:33:14.969Z,26.89
2023-05-20T16:36:42.991Z,27.31
2023-05-20T16:40:09.771Z,27.43
2023-05-20T16:43:27.456Z,27.49
2023-05-20T16:46:34.132Z,27.53
2023-05-20T16:50:01.816Z,27.48
2023-05-20T16:53:29.538Z,27.55
2023-05-20T16:56:36.752Z,27.63
2023-05-20T16:59:41.076Z,27.80
2023-05-20T17:02:46.516Z,27.82
2023-05-20T17:05:59.872Z,27.68
2023-05-20T17:09:10.233Z,27.85
2023-05-20T17:12:26.671Z,27.84
2023-05-20T17:15:42.519Z,28.08
2023-05-20T17:19:10.223Z,28.41
2023-05-20T17:22:38.487Z,28.37
2023-05-20T17:25:49.347Z,28.60
2023-05-20T17:29:10.413Z,28.50
2023-05-20T17:32:28.171Z,28.62
2023-05-20T17:35:35.937Z,28.67
2023-05-20T17:39:03.743Z,28.95
2023-05-20T17:42:31.333Z,29.02
2023-05-20T17:45:59.019Z,29.24
2023-05-20T17:49:08.539Z,29.47
2023-05-20T17:52:35.650Z,29.95
2023-05-20T17:55:47.988Z,30.17
2023-05-20T17:59:16.675Z,30.26
2023-05-20T18:02:44.458Z,30.53
2023-05-20T18:06:12.149Z,31.53
2023-05-20T18:09:39.853Z,32.78
2023-05-20T18:13:07.855Z,33.34
2023-05-20T18:16:35.746Z,33.88
2023-05-20T18:20:02.285Z,33.94
2023-05-20T18:22:58.629Z,33.95
2023-05-20T18:26:04.836Z,34.02
2023-05-20T18:29:32.897Z,33.88
2023-05-20T18:32:59.699Z,33.94
2023-05-20T18:36:28.127Z,34.10
2023-05-20T18:39:55.868Z,34.24
2023-05-20T18:43:23.602Z,34.16
2023-05-20T18:46:51.837Z,34.20
2023-05-20T18:50:19.540Z,34.17
2023-05-20T18:53:47.244Z,34.26
2023-05-20T18:57:14.411Z,34.41
2023-05-20T19:00:42.012Z,34.64
2023-05-20T19:03:59.559Z,34.59
2023-05-20T19:07:26.559Z,34.81
2023-05-20T19:10:34.162Z,34.80
2023-05-20T19:13:35.002Z,35.01
2023-05-20T19:17:01.606Z,35.10
2023-05-20T19:20:19.217Z,35.20
2023-05-20T19:23:37.848Z,35.30
2023-05-20T19:27:05.574Z,35.46
2023-05-20T19:30:26.351Z,35.65
2023-05-20T19:33:30.764Z,35.73
2023-05-20T19:36:57.195Z,35.88
2023-05-20T19:39:54.421Z,35.97
2023-05-20T19:42:58.181Z,36.09
2023-05-20T19:46:18.432Z,36.30
2023-05-20T19:49:36.468Z,36.58
2023-05-20T19:53:04.165Z,36.67
2023-05-20T19:56:13.687Z,36.68
2023-05-20T19:59:41.508Z,36.86
2023-05-20T20:02:52.086Z,36.90
2023-05-20T20:06:19.779Z,37.18
2023-05-20T20:09:47.995Z,37.30
2023-05-20T20:12:38.398Z,37.43
2023-05-20T20:15:30.972Z,37.53
2023-05-20T20:18:58.579Z,37.76
2023-05-20T20:21:59.917Z,37.88
2023-05-20T20:24:56.234Z,38.00
2023-05-20T20:28:23.796Z,38.15
2023-05-20T20:31:31.950Z,38.34
2023-05-20T20:34:42.263Z,38.45
2023-05-20T20:37:52.630Z,38.58
2023-05-20T20:41:18.235Z,38.79
2023-05-20T20:44:45.846Z,38.92
2023-05-20T20:47:32.199Z,38.88
2023-05-20T20:51:06.977Z,39.14
2023-05-20T20:54:32.959Z,39.16
2023-05-20T20:58:00.524Z,39.29
2023-05-20T21:01:28.147Z,39.42
2023-05-20T21:04:31.589Z,39.53
2023-05-20T21:07:53.825Z,39.59
2023-05-20T21:11:21.515Z,39.81
2023-05-20T21:14:37.943Z,39.85
2023-05-20T21:17:54.649Z,39.92
2023-05-20T21:21:10.924Z,40.06
2023-05-20T21:24:38.510Z,40.28
2023-05-20T21:28:05.854Z,40.36
2023-05-20T21:31:13.991Z,40.49
2023-05-20T21:34:41.809Z,40.71
2023-05-20T21:37:32.596Z,40.93
2023-05-20T21:41:00.321Z,41.09
2023-05-20T21:44:27.037Z,41.32
2023-05-20T21:47:53.586Z,41.50
2023-05-20T21:51:20.344Z,41.73
2023-05-20T21:54:30.796Z,41.96
2023-05-20T21:57:59.496Z,42.19
2023-05-20T22:01:27.141Z,42.44
2023-05-20T22:04:54.784Z,42.61
2023-05-20T22:08:14.636Z,42.66
2023-05-20T22:11:42.342Z,42.87
2023-05-20T22:15:09.957Z,43.16
2023-05-20T22:18:37.649Z,43.40
2023-05-20T22:22:03.915Z,43.47
2023-05-20T22:25:36.750Z,43.74
2023-05-20T22:28:30.265Z,43.86
2023-05-20T22:31:02.571Z,43.95
2023-05-20T22:33:36.326Z,44.01
2023-05-20T22:36:16.372Z,44.18
2023-05-20T22:39:07.200Z,44.22
2023-05-20T22:41:37.297Z,44.26
2023-05-20T22:44:04.416Z,44.36
2023-05-20T22:46:32.424Z,44.46
2023-05-20T22:49:01.984Z,44.59
2023-05-20T22:51:35.579Z,44.69
2023-05-20T22:54:26.910Z,44.84
2023-05-20T22:57:15.195Z,45.08
2023-05-20T22:59:43.436Z,45.12
2023-05-20T23:02:25.014Z,45.17
2023-05-20T23:05:09.000Z,45.31
2023-05-20T23:08:19.358Z,45.50
2023-05-20T23:11:39.977Z,45.58
2023-05-20T23:15:01.070Z,45.75
2023-05-20T23:18:28.667Z,45.88
2023-05-20T23:21:34.835Z,46.10
2023-05-20T23:25:02.492Z,46.34
2023-05-20T23:28:30.144Z,46.40
2023-05-20T23:31:57.739Z,46.58
2023-05-20T23:35:25.351Z,46.61
2023-05-20T23:38:52.901Z,46.81
2023-05-20T23:42:19.634Z,46.97
2023-05-20T23:45:34.699Z,47.08
2023-05-20T23:49:02.419Z,47.36
2023-05-20T23:52:23.578Z,47.52
2023-05-20T23:55:36.058Z,47.68
2023-05-20T23:58:58.541Z,47.82
